sensor_id;sensor_type;location;lat;lon;timestamp;temperature;humidity
15359;DHT22;7779;49.596;11.070;2022-12-29T00:02:25;8.80;71.00
15359;DHT22;7779;49.596;11.070;2022-12-29T00:04:51;8.80;71.00
15359;DHT22;7779;49.596;11.070;2022-12-29T00:07:18;8.80;71.00
15359;DHT22;7779;49.596;11.070;2022-12-29T00:09:44;8.90;71.00
15359;DHT22;7779;49.596;11.070;2022-12-29T00:12:09;8.80;70.80
15359;DHT22;7779;49.596;11.070;2022-12-29T00:14:35;8.90;70.80
15359;DHT22;7779;49.596;11.070;2022-12-29T00:17:19;8.90;70.80
15359;DHT22;7779;49.596;11.070;2022-12-29T00:19:45;8.90;70.90
15359;DHT22;7779;49.596;11.070;2022-12-29T00:22:30;8.90;70.90
15359;DHT22;7779;49.596;11.070;2022-12-29T00:25:14;8.90;70.70
15359;DHT22;7779;49.596;11.070;2022-12-29T00:27:59;9.00;70.80
15359;DHT22;7779;49.596;11.070;2022-12-29T00:30:43;8.90;70.70
15359;DHT22;7779;49.596;11.070;2022-12-29T00:33:32;9.00;70.80
15359;DHT22;7779;49.596;11.070;2022-12-29T00:36:36;9.00;70.70
15359;DHT22;7779;49.596;11.070;2022-12-29T00:39:14;9.00;70.60
15359;DHT22;7779;49.596;11.070;2022-12-29T00:42:06;9.10;71.00
15359;DHT22;7779;49.596;11.070;2022-12-29T00:44:51;9.10;71.00
15359;DHT22;7779;49.596;11.070;2022-12-29T00:47:17;9.10;71.00
15359;DHT22;7779;49.596;11.070;2022-12-29T00:49:43;9.10;68.80
15359;DHT22;7779;49.596;11.070;2022-12-29T00:52:12;9.20;70.90
15359;DHT22;7779;49.596;11.070;2022-12-29T00:54:40;9.20;70.60
15359;DHT22;7779;49.596;11.070;2022-12-29T00:57:08;9.30;70.80
15359;DHT22;7779;49.596;11.070;2022-12-29T00:59:39;9.30;70.70
15359;DHT22;7779;49.596;11.070;2022-12-29T01:02:06;9.30;70.30
15359;DHT22;7779;49.596;11.070;2022-12-29T01:04:33;9.30;71.20
15359;DHT22;7779;49.596;11.070;2022-12-29T01:06:58;9.30;70.50
15359;DHT22;7779;49.596;11.070;2022-12-29T01:09:24;9.40;70.60
15359;DHT22;7779;49.596;11.070;2022-12-29T01:12:09;9.40;70.50
15359;DHT22;7779;49.596;11.070;2022-12-29T01:14:36;9.40;70.40
15359;DHT22;7779;49.596;11.070;2022-12-29T01:17:03;9.40;70.30
15359;DHT22;7779;49.596;11.070;2022-12-29T01:19:29;9.40;70.30
15359;DHT22;7779;49.596;11.070;2022-12-29T01:21:55;9.50;70.40
15359;DHT22;7779;49.596;11.070;2022-12-29T01:24:21;9.50;70.20
15359;DHT22;7779;49.596;11.070;2022-12-29T01:26:47;9.50;70.20
15359;DHT22;7779;49.596;11.070;2022-12-29T01:29:16;9.50;70.20
15359;DHT22;7779;49.596;11.070;2022-12-29T01:31:44;9.50;70.30
15359;DHT22;7779;49.596;11.070;2022-12-29T01:34:11;9.50;70.30
15359;DHT22;7779;49.596;11.070;2022-12-29T01:36:38;9.50;70.10
15359;DHT22;7779;49.596;11.070;2022-12-29T01:39:04;9.60;70.20
15359;DHT22;7779;49.596;11.070;2022-12-29T01:41:29;9.60;70.20
15359;DHT22;7779;49.596;11.070;2022-12-29T01:43:59;9.60;70.20
15359;DHT22;7779;49.596;11.070;2022-12-29T01:46:36;9.60;70.10
15359;DHT22;7779;49.596;11.070;2022-12-29T01:49:24;9.60;69.60
15359;DHT22;7779;49.596;11.070;2022-12-29T01:51:59;9.70;69.30
15359;DHT22;7779;49.596;11.070;2022-12-29T01:57:03;9.70;70.00
15359;DHT22;7779;49.596;11.070;2022-12-29T01:59:39;9.70;70.00
15359;DHT22;7779;49.596;11.070;2022-12-29T02:02:11;9.70;69.90
15359;DHT22;7779;49.596;11.070;2022-12-29T02:04:40;9.80;70.20
15359;DHT22;7779;49.596;11.070;2022-12-29T02:07:19;9.80;70.00
15359;DHT22;7779;49.596;11.070;2022-12-29T02:09:50;9.80;69.70
15359;DHT22;7779;49.596;11.070;2022-12-29T02:12:20;9.80;69.80
15359;DHT22;7779;49.596;11.070;2022-12-29T02:14:49;9.80;69.90
15359;DHT22;7779;49.596;11.070;2022-12-29T02:23:30;10.00;68.10
15359;DHT22;7779;49.596;11.070;2022-12-29T02:26:37;9.90;69.90
15359;DHT22;7779;49.596;11.070;2022-12-29T02:32:21;10.00;68.30
15359;DHT22;7779;49.596;11.070;2022-12-29T02:38:14;10.00;67.70
15359;DHT22;7779;49.596;11.070;2022-12-29T02:40:55;10.00;68.30
15359;DHT22;7779;49.596;11.070;2022-12-29T02:43:45;10.10;68.20
15359;DHT22;7779;49.596;11.070;2022-12-29T02:46:33;10.00;68.00
15359;DHT22;7779;49.596;11.070;2022-12-29T02:49:15;10.10;67.90
15359;DHT22;7779;49.596;11.070;2022-12-29T02:52:07;10.10;68.20
15359;DHT22;7779;49.596;11.070;2022-12-29T02:54:40;10.10;67.60
15359;DHT22;7779;49.596;11.070;2022-12-29T02:57:32;10.10;68.20
15359;DHT22;7779;49.596;11.070;2022-12-29T03:00:05;10.00;67.60
15359;DHT22;7779;49.596;11.070;2022-12-29T03:02:58;10.00;67.80
15359;DHT22;7779;49.596;11.070;2022-12-29T03:11:33;9.90;68.90
15359;DHT22;7779;49.596;11.070;2022-12-29T03:14:44;9.90;68.80
15359;DHT22;7779;49.596;11.070;2022-12-29T03:17:49;9.90;68.90
15359;DHT22;7779;49.596;11.070;2022-12-29T03:20:27;9.90;68.80
15359;DHT22;7779;49.596;11.070;2022-12-29T03:23:02;9.90;69.10
15359;DHT22;7779;49.596;11.070;2022-12-29T03:25:36;9.90;69.30
15359;DHT22;7779;49.596;11.070;2022-12-29T03:28:18;9.90;69.10
15359;DHT22;7779;49.596;11.070;2022-12-29T03:30:49;9.90;69.20
15359;DHT22;7779;49.596;11.070;2022-12-29T03:33:21;9.90;69.40
15359;DHT22;7779;49.596;11.070;2022-12-29T03:35:55;10.00;68.20
15359;DHT22;7779;49.596;11.070;2022-12-29T03:38:40;9.90;69.20
15359;DHT22;7779;49.596;11.070;2022-12-29T03:41:17;10.00;67.90
15359;DHT22;7779;49.596;11.070;2022-12-29T03:43:46;10.00;68.30
15359;DHT22;7779;49.596;11.070;2022-12-29T03:46:12;10.00;68.30
15359;DHT22;7779;49.596;11.070;2022-12-29T03:48:40;10.00;68.30
15359;DHT22;7779;49.596;11.070;2022-12-29T03:51:08;10.00;68.20
15359;DHT22;7779;49.596;11.070;2022-12-29T03:53:34;10.00;68.30
15359;DHT22;7779;49.596;11.070;2022-12-29T03:56:00;10.00;68.20
15359;DHT22;7779;49.596;11.070;2022-12-29T03:58:26;10.00;68.10
15359;DHT22;7779;49.596;11.070;2022-12-29T04:01:15;10.10;68.20
15359;DHT22;7779;49.596;11.070;2022-12-29T04:03:42;10.10;68.20
15359;DHT22;7779;49.596;11.070;2022-12-29T04:06:08;10.10;68.20
15359;DHT22;7779;49.596;11.070;2022-12-29T04:08:42;10.10;68.10
15359;DHT22;7779;49.596;11.070;2022-12-29T04:11:08;10.10;68.10
15359;DHT22;7779;49.596;11.070;2022-12-29T04:13:34;10.10;68.10
15359;DHT22;7779;49.596;11.070;2022-12-29T04:16:00;10.10;68.10
15359;DHT22;7779;49.596;11.070;2022-12-29T04:18:26;10.10;68.10
15359;DHT22;7779;49.596;11.070;2022-12-29T04:20:52;10.10;68.00
15359;DHT22;7779;49.596;11.070;2022-12-29T04:23:32;10.10;67.90
15359;DHT22;7779;49.596;11.070;2022-12-29T04:26:04;10.10;67.70
15359;DHT22;7779;49.596;11.070;2022-12-29T04:28:33;10.10;67.70
15359;DHT22;7779;49.596;11.070;2022-12-29T04:31:16;10.10;67.70
15359;DHT22;7779;49.596;11.070;2022-12-29T04:33:44;10.10;67.70
15359;DHT22;7779;49.596;11.070;2022-12-29T04:36:10;10.10;67.80
15359;DHT22;7779;49.596;11.070;2022-12-29T04:38:37;10.10;67.80
15359;DHT22;7779;49.596;11.070;2022-12-29T04:41:04;10.10;67.80
15359;DHT22;7779;49.596;11.070;2022-12-29T04:43:31;10.00;67.70
15359;DHT22;7779;49.596;11.070;2022-12-29T04:46:15;10.00;67.70
15359;DHT22;7779;49.596;11.070;2022-12-29T04:48:50;10.00;67.70
15359;DHT22;7779;49.596;11.070;2022-12-29T04:51:34;10.00;67.70
15359;DHT22;7779;49.596;11.070;2022-12-29T04:54:00;10.00;67.80
15359;DHT22;7779;49.596;11.070;2022-12-29T04:56:28;10.00;67.70
15359;DHT22;7779;49.596;11.070;2022-12-29T04:58:54;10.00;67.70
15359;DHT22;7779;49.596;11.070;2022-12-29T05:01:20;10.00;67.70
15359;DHT22;7779;49.596;11.070;2022-12-29T05:03:46;10.00;67.60
15359;DHT22;7779;49.596;11.070;2022-12-29T05:06:12;10.00;67.50
15359;DHT22;7779;49.596;11.070;2022-12-29T05:08:38;10.00;67.40
15359;DHT22;7779;49.596;11.070;2022-12-29T05:11:04;10.00;67.40
15359;DHT22;7779;49.596;11.070;2022-12-29T05:13:30;10.00;67.50
15359;DHT22;7779;49.596;11.070;2022-12-29T05:15:56;10.00;67.50
15359;DHT22;7779;49.596;11.070;2022-12-29T05:18:23;10.00;67.50
15359;DHT22;7779;49.596;11.070;2022-12-29T05:20:49;10.00;67.50
15359;DHT22;7779;49.596;11.070;2022-12-29T05:23:16;10.00;67.50
15359;DHT22;7779;49.596;11.070;2022-12-29T05:25:43;10.00;67.50
15359;DHT22;7779;49.596;11.070;2022-12-29T05:28:19;10.00;67.40
15359;DHT22;7779;49.596;11.070;2022-12-29T05:30:53;10.00;67.50
15359;DHT22;7779;49.596;11.070;2022-12-29T05:33:19;10.00;67.40
15359;DHT22;7779;49.596;11.070;2022-12-29T05:35:47;10.00;67.30
15359;DHT22;7779;49.596;11.070;2022-12-29T05:38:13;10.00;67.20
15359;DHT22;7779;49.596;11.070;2022-12-29T05:40:39;10.00;67.00
15359;DHT22;7779;49.596;11.070;2022-12-29T05:43:14;10.00;66.90
15359;DHT22;7779;49.596;11.070;2022-12-29T05:46:00;10.00;66.80
15359;DHT22;7779;49.596;11.070;2022-12-29T05:48:55;9.90;67.70
15359;DHT22;7779;49.596;11.070;2022-12-29T05:51:29;9.90;67.60
15359;DHT22;7779;49.596;11.070;2022-12-29T05:53:55;9.80;67.40
15359;DHT22;7779;49.596;11.070;2022-12-29T05:56:22;9.80;67.30
15359;DHT22;7779;49.596;11.070;2022-12-29T05:58:55;9.70;67.20
15359;DHT22;7779;49.596;11.070;2022-12-29T06:01:21;9.70;67.10
15359;DHT22;7779;49.596;11.070;2022-12-29T06:03:48;9.60;67.00
15359;DHT22;7779;49.596;11.070;2022-12-29T06:06:14;9.60;67.00
15359;DHT22;7779;49.596;11.070;2022-12-29T06:08:39;9.50;66.90
15359;DHT22;7779;49.596;11.070;2022-12-29T06:11:05;9.40;66.90
15359;DHT22;7779;49.596;11.070;2022-12-29T06:13:32;9.40;66.90
15359;DHT22;7779;49.596;11.070;2022-12-29T06:15:58;9.30;66.90
15359;DHT22;7779;49.596;11.070;2022-12-29T06:18:25;9.20;66.90
15359;DHT22;7779;49.596;11.070;2022-12-29T06:20:51;9.20;67.00
15359;DHT22;7779;49.596;11.070;2022-12-29T06:23:17;9.10;67.10
15359;DHT22;7779;49.596;11.070;2022-12-29T06:25:44;9.10;67.30
15359;DHT22;7779;49.596;11.070;2022-12-29T06:28:11;9.00;67.20
15359;DHT22;7779;49.596;11.070;2022-12-29T06:30:37;9.00;67.30
15359;DHT22;7779;49.596;11.070;2022-12-29T06:33:03;8.90;67.20
15359;DHT22;7779;49.596;11.070;2022-12-29T06:35:29;8.90;67.20
15359;DHT22;7779;49.596;11.070;2022-12-29T06:37:55;8.90;67.20
15359;DHT22;7779;49.596;11.070;2022-12-29T06:40:21;8.80;67.20
15359;DHT22;7779;49.596;11.070;2022-12-29T06:43:05;8.80;67.30
15359;DHT22;7779;49.596;11.070;2022-12-29T06:45:49;8.70;67.20
15359;DHT22;7779;49.596;11.070;2022-12-29T06:48:15;8.70;67.30
15359;DHT22;7779;49.596;11.070;2022-12-29T06:50:41;8.60;67.30
15359;DHT22;7779;49.596;11.070;2022-12-29T06:53:06;8.60;67.40
15359;DHT22;7779;49.596;11.070;2022-12-29T06:55:32;8.60;67.50
15359;DHT22;7779;49.596;11.070;2022-12-29T06:57:58;8.60;67.60
15359;DHT22;7779;49.596;11.070;2022-12-29T07:00:24;8.50;67.80
15359;DHT22;7779;49.596;11.070;2022-12-29T07:02:50;8.50;67.80
15359;DHT22;7779;49.596;11.070;2022-12-29T07:05:16;8.50;67.80
15359;DHT22;7779;49.596;11.070;2022-12-29T07:07:42;8.50;67.90
15359;DHT22;7779;49.596;11.070;2022-12-29T07:10:08;8.50;67.90
15359;DHT22;7779;49.596;11.070;2022-12-29T07:12:33;8.50;67.90
15359;DHT22;7779;49.596;11.070;2022-12-29T07:14:59;8.50;67.90
15359;DHT22;7779;49.596;11.070;2022-12-29T07:17:25;8.50;68.00
15359;DHT22;7779;49.596;11.070;2022-12-29T07:19:50;8.50;68.00
15359;DHT22;7779;49.596;11.070;2022-12-29T07:22:16;8.50;68.10
15359;DHT22;7779;49.596;11.070;2022-12-29T07:24:42;8.50;68.20
15359;DHT22;7779;49.596;11.070;2022-12-29T07:27:08;8.50;68.30
15359;DHT22;7779;49.596;11.070;2022-12-29T07:29:37;8.50;68.30
15359;DHT22;7779;49.596;11.070;2022-12-29T07:32:02;8.50;68.30
15359;DHT22;7779;49.596;11.070;2022-12-29T07:34:28;8.50;68.30
15359;DHT22;7779;49.596;11.070;2022-12-29T07:36:54;8.60;68.50
15359;DHT22;7779;49.596;11.070;2022-12-29T07:39:20;8.60;68.40
15359;DHT22;7779;49.596;11.070;2022-12-29T07:41:45;8.60;68.30
15359;DHT22;7779;49.596;11.070;2022-12-29T07:44:16;8.60;68.30
15359;DHT22;7779;49.596;11.070;2022-12-29T07:46:58;8.60;68.30
15359;DHT22;7779;49.596;11.070;2022-12-29T07:49:23;8.60;68.40
15359;DHT22;7779;49.596;11.070;2022-12-29T07:51:49;8.60;68.60
15359;DHT22;7779;49.596;11.070;2022-12-29T07:54:15;8.70;68.90
15359;DHT22;7779;49.596;11.070;2022-12-29T07:56:44;8.70;69.00
15359;DHT22;7779;49.596;11.070;2022-12-29T07:59:10;8.80;69.30
15359;DHT22;7779;49.596;11.070;2022-12-29T08:01:37;8.90;69.30
15359;DHT22;7779;49.596;11.070;2022-12-29T08:04:04;8.90;69.30
15359;DHT22;7779;49.596;11.070;2022-12-29T08:06:30;9.00;69.50
15359;DHT22;7779;49.596;11.070;2022-12-29T08:08:56;9.00;69.40
15359;DHT22;7779;49.596;11.070;2022-12-29T08:11:23;9.10;69.50
15359;DHT22;7779;49.596;11.070;2022-12-29T08:13:49;9.20;69.40
15359;DHT22;7779;49.596;11.070;2022-12-29T08:16:14;9.30;69.40
15359;DHT22;7779;49.596;11.070;2022-12-29T08:18:40;9.30;69.30
15359;DHT22;7779;49.596;11.070;2022-12-29T08:21:06;9.40;69.30
15359;DHT22;7779;49.596;11.070;2022-12-29T08:23:32;9.50;69.20
15359;DHT22;7779;49.596;11.070;2022-12-29T08:25:59;9.60;69.10
15359;DHT22;7779;49.596;11.070;2022-12-29T08:28:26;9.60;69.00
15359;DHT22;7779;49.596;11.070;2022-12-29T08:30:52;9.70;69.00
15359;DHT22;7779;49.596;11.070;2022-12-29T08:33:18;9.80;69.00
15359;DHT22;7779;49.596;11.070;2022-12-29T08:35:44;9.90;69.10
15359;DHT22;7779;49.596;11.070;2022-12-29T08:38:10;10.00;67.90
15359;DHT22;7779;49.596;11.070;2022-12-29T08:40:39;10.10;68.00
15359;DHT22;7779;49.596;11.070;2022-12-29T08:43:04;10.10;67.90
15359;DHT22;7779;49.596;11.070;2022-12-29T08:45:31;10.20;67.90
15359;DHT22;7779;49.596;11.070;2022-12-29T08:47:57;10.20;67.80
15359;DHT22;7779;49.596;11.070;2022-12-29T08:50:22;10.40;67.90
15359;DHT22;7779;49.596;11.070;2022-12-29T08:52:48;10.40;67.90
15359;DHT22;7779;49.596;11.070;2022-12-29T08:55:14;10.50;67.90
15359;DHT22;7779;49.596;11.070;2022-12-29T08:57:39;10.60;67.80
15359;DHT22;7779;49.596;11.070;2022-12-29T09:00:31;10.70;67.80
15359;DHT22;7779;49.596;11.070;2022-12-29T09:02:57;10.80;68.00
15359;DHT22;7779;49.596;11.070;2022-12-29T09:05:23;10.80;67.60
15359;DHT22;7779;49.596;11.070;2022-12-29T09:07:49;10.90;67.50
15359;DHT22;7779;49.596;11.070;2022-12-29T09:10:15;11.00;67.50
15359;DHT22;7779;49.596;11.070;2022-12-29T09:12:40;11.00;67.40
15359;DHT22;7779;49.596;11.070;2022-12-29T09:15:07;11.10;67.50
15359;DHT22;7779;49.596;11.070;2022-12-29T09:17:33;11.20;67.30
15359;DHT22;7779;49.596;11.070;2022-12-29T09:20:09;11.20;67.30
15359;DHT22;7779;49.596;11.070;2022-12-29T09:22:39;11.30;67.20
15359;DHT22;7779;49.596;11.070;2022-12-29T09:25:05;11.30;67.00
15359;DHT22;7779;49.596;11.070;2022-12-29T09:27:31;11.40;67.00
15359;DHT22;7779;49.596;11.070;2022-12-29T09:29:57;11.50;66.90
15359;DHT22;7779;49.596;11.070;2022-12-29T09:32:23;11.50;66.90
15359;DHT22;7779;49.596;11.070;2022-12-29T09:34:49;11.50;66.60
15359;DHT22;7779;49.596;11.070;2022-12-29T09:37:14;11.60;66.60
15359;DHT22;7779;49.596;11.070;2022-12-29T09:39:40;11.70;66.70
15359;DHT22;7779;49.596;11.070;2022-12-29T09:42:17;11.70;66.90
15359;DHT22;7779;49.596;11.070;2022-12-29T09:45:16;11.80;66.00
15359;DHT22;7779;49.596;11.070;2022-12-29T09:47:53;11.80;65.50
15359;DHT22;7779;49.596;11.070;2022-12-29T09:50:32;11.90;66.80
15359;DHT22;7779;49.596;11.070;2022-12-29T09:53:22;11.90;65.70
15359;DHT22;7779;49.596;11.070;2022-12-29T09:55:55;12.00;66.10
15359;DHT22;7779;49.596;11.070;2022-12-29T10:01:26;12.10;66.00
15359;DHT22;7779;49.596;11.070;2022-12-29T10:04:02;12.10;66.00
15359;DHT22;7779;49.596;11.070;2022-12-29T10:12:33;12.30;66.50
15359;DHT22;7779;49.596;11.070;2022-12-29T10:15:38;12.30;65.00
15359;DHT22;7779;49.596;11.070;2022-12-29T10:18:30;12.40;65.10
15359;DHT22;7779;49.596;11.070;2022-12-29T10:21:16;12.40;64.90
15359;DHT22;7779;49.596;11.070;2022-12-29T10:23:52;12.40;65.80
15359;DHT22;7779;49.596;11.070;2022-12-29T10:26:23;12.50;66.20
15359;DHT22;7779;49.596;11.070;2022-12-29T10:29:03;12.50;66.10
15359;DHT22;7779;49.596;11.070;2022-12-29T10:32:03;12.50;66.00
15359;DHT22;7779;49.596;11.070;2022-12-29T10:34:42;12.60;65.50
15359;DHT22;7779;49.596;11.070;2022-12-29T10:37:42;12.50;65.20
15359;DHT22;7779;49.596;11.070;2022-12-29T10:40:40;12.60;65.00
15359;DHT22;7779;49.596;11.070;2022-12-29T10:43:30;12.70;64.90
15359;DHT22;7779;49.596;11.070;2022-12-29T10:46:12;12.70;65.00
15359;DHT22;7779;49.596;11.070;2022-12-29T10:48:41;12.80;66.20
15359;DHT22;7779;49.596;11.070;2022-12-29T10:51:11;12.90;66.50
15359;DHT22;7779;49.596;11.070;2022-12-29T10:54:18;13.00;66.70
15359;DHT22;7779;49.596;11.070;2022-12-29T10:56:59;13.10;65.80
15359;DHT22;7779;49.596;11.070;2022-12-29T10:59:35;13.20;66.20
15359;DHT22;7779;49.596;11.070;2022-12-29T11:04:46;13.40;66.70
15359;DHT22;7779;49.596;11.070;2022-12-29T11:07:29;13.40;65.40
15359;DHT22;7779;49.596;11.070;2022-12-29T11:13:00;13.60;64.60
15359;DHT22;7779;49.596;11.070;2022-12-29T11:15:42;13.60;64.70
15359;DHT22;7779;49.596;11.070;2022-12-29T11:18:23;13.70;64.90
15359;DHT22;7779;49.596;11.070;2022-12-29T11:20:56;13.70;64.50
15359;DHT22;7779;49.596;11.070;2022-12-29T11:31:49;13.80;63.70
15359;DHT22;7779;49.596;11.070;2022-12-29T11:37:02;13.80;64.80
15359;DHT22;7779;49.596;11.070;2022-12-29T11:39:41;13.80;64.00
15359;DHT22;7779;49.596;11.070;2022-12-29T11:42:19;13.90;64.60
15359;DHT22;7779;49.596;11.070;2022-12-29T11:44:49;13.90;64.10
15359;DHT22;7779;49.596;11.070;2022-12-29T11:47:26;13.90;64.60
15359;DHT22;7779;49.596;11.070;2022-12-29T11:50:00;13.90;64.30
15359;DHT22;7779;49.596;11.070;2022-12-29T11:52:32;13.90;64.30
15359;DHT22;7779;49.596;11.070;2022-12-29T11:55:03;13.80;64.40
15359;DHT22;7779;49.596;11.070;2022-12-29T11:57:33;13.80;64.30
15359;DHT22;7779;49.596;11.070;2022-12-29T12:00:13;13.80;64.30
15359;DHT22;7779;49.596;11.070;2022-12-29T12:03:20;13.80;64.30
15359;DHT22;7779;49.596;11.070;2022-12-29T12:05:51;15.20;65.20
15359;DHT22;7779;49.596;11.070;2022-12-29T12:08:45;13.70;64.60
15359;DHT22;7779;49.596;11.070;2022-12-29T12:11:30;13.70;64.00
15359;DHT22;7779;49.596;11.070;2022-12-29T12:14:17;13.70;64.40
15359;DHT22;7779;49.596;11.070;2022-12-29T12:17:16;13.70;64.80
15359;DHT22;7779;49.596;11.070;2022-12-29T12:20:14;13.60;65.00
15359;DHT22;7779;49.596;11.070;2022-12-29T12:26:11;13.60;65.30
15359;DHT22;7779;49.596;11.070;2022-12-29T12:29:00;13.50;65.50
15359;DHT22;7779;49.596;11.070;2022-12-29T12:31:46;13.50;65.20
15359;DHT22;7779;49.596;11.070;2022-12-29T12:34:27;13.50;65.50
15359;DHT22;7779;49.596;11.070;2022-12-29T12:40:40;13.50;65.20
15359;DHT22;7779;49.596;11.070;2022-12-29T13:15:59;13.40;66.00
15359;DHT22;7779;49.596;11.070;2022-12-29T13:19:00;13.40;65.70
15359;DHT22;7779;49.596;11.070;2022-12-29T13:24:52;13.40;66.00
15359;DHT22;7779;49.596;11.070;2022-12-29T13:30:41;13.40;66.20
15359;DHT22;7779;49.596;11.070;2022-12-29T13:36:25;13.40;66.30
15359;DHT22;7779;49.596;11.070;2022-12-29T13:39:18;13.40;66.20
15359;DHT22;7779;49.596;11.070;2022-12-29T13:41:54;13.40;66.10
15359;DHT22;7779;49.596;11.070;2022-12-29T13:44:28;13.40;66.40
15359;DHT22;7779;49.596;11.070;2022-12-29T13:47:01;13.40;66.60
15359;DHT22;7779;49.596;11.070;2022-12-29T13:49:43;13.40;66.60
15359;DHT22;7779;49.596;11.070;2022-12-29T13:52:17;13.40;66.70
15359;DHT22;7779;49.596;11.070;2022-12-29T13:55:26;13.40;66.50
15359;DHT22;7779;49.596;11.070;2022-12-29T13:58:01;13.40;66.20
15359;DHT22;7779;49.596;11.070;2022-12-29T14:03:52;13.40;66.40
15359;DHT22;7779;49.596;11.070;2022-12-29T14:06:31;13.40;66.30
15359;DHT22;7779;49.596;11.070;2022-12-29T14:09:04;13.40;66.40
15359;DHT22;7779;49.596;11.070;2022-12-29T14:11:51;13.40;66.70
15359;DHT22;7779;49.596;11.070;2022-12-29T14:17:09;13.30;66.60
15359;DHT22;7779;49.596;11.070;2022-12-29T14:19:43;13.30;66.30
15359;DHT22;7779;49.596;11.070;2022-12-29T14:22:12;13.30;66.60
15359;DHT22;7779;49.596;11.070;2022-12-29T14:24:41;13.20;66.10
15359;DHT22;7779;49.596;11.070;2022-12-29T14:34:56;13.10;67.40
15359;DHT22;7779;49.596;11.070;2022-12-29T14:42:46;13.00;67.80
15359;DHT22;7779;49.596;11.070;2022-12-29T14:50:18;12.80;67.90
15359;DHT22;7779;49.596;11.070;2022-12-29T14:53:01;12.70;68.30
15359;DHT22;7779;49.596;11.070;2022-12-29T14:55:44;12.70;68.20
15359;DHT22;7779;49.596;11.070;2022-12-29T14:58:20;12.60;68.60
15359;DHT22;7779;49.596;11.070;2022-12-29T15:00:51;12.60;68.80
15359;DHT22;7779;49.596;11.070;2022-12-29T15:03:19;12.50;68.50
15359;DHT22;7779;49.596;11.070;2022-12-29T15:06:15;12.50;68.80
15359;DHT22;7779;49.596;11.070;2022-12-29T15:12:21;12.30;69.60
15359;DHT22;7779;49.596;11.070;2022-12-29T15:14:58;12.20;69.20
15359;DHT22;7779;49.596;11.070;2022-12-29T15:17:29;12.20;69.30
15359;DHT22;7779;49.596;11.070;2022-12-29T15:19:58;12.10;69.60
15359;DHT22;7779;49.596;11.070;2022-12-29T15:22:26;12.10;69.70
15359;DHT22;7779;49.596;11.070;2022-12-29T15:24:54;12.00;69.80
15359;DHT22;7779;49.596;11.070;2022-12-29T15:27:24;12.00;70.00
15359;DHT22;7779;49.596;11.070;2022-12-29T15:29:59;11.90;70.10
15359;DHT22;7779;49.596;11.070;2022-12-29T15:32:29;11.90;70.70
15359;DHT22;7779;49.596;11.070;2022-12-29T15:38:15;11.80;71.50
15359;DHT22;7779;49.596;11.070;2022-12-29T15:40:53;11.80;71.40
15359;DHT22;7779;49.596;11.070;2022-12-29T15:43:40;11.70;71.00
15359;DHT22;7779;49.596;11.070;2022-12-29T15:46:10;11.70;70.90
15359;DHT22;7779;49.596;11.070;2022-12-29T15:48:38;11.70;71.00
15359;DHT22;7779;49.596;11.070;2022-12-29T15:51:17;11.60;71.10
15359;DHT22;7779;49.596;11.070;2022-12-29T15:53:50;11.60;71.80
15359;DHT22;7779;49.596;11.070;2022-12-29T15:56:17;11.60;71.60
15359;DHT22;7779;49.596;11.070;2022-12-29T15:58:51;11.60;71.40
15359;DHT22;7779;49.596;11.070;2022-12-29T16:01:24;11.60;71.90
15359;DHT22;7779;49.596;11.070;2022-12-29T16:03:55;11.50;71.80
15359;DHT22;7779;49.596;11.070;2022-12-29T16:06:39;11.50;71.60
15359;DHT22;7779;49.596;11.070;2022-12-29T16:09:18;11.50;72.00
15359;DHT22;7779;49.596;11.070;2022-12-29T16:11:57;11.50;72.20
15359;DHT22;7779;49.596;11.070;2022-12-29T16:14:45;11.50;72.00
15359;DHT22;7779;49.596;11.070;2022-12-29T16:17:18;11.50;72.70
15359;DHT22;7779;49.596;11.070;2022-12-29T16:19:51;11.40;72.60
15359;DHT22;7779;49.596;11.070;2022-12-29T16:22:33;11.40;72.30
15359;DHT22;7779;49.596;11.070;2022-12-29T16:25:13;11.40;72.60
15359;DHT22;7779;49.596;11.070;2022-12-29T16:27:44;11.40;72.30
15359;DHT22;7779;49.596;11.070;2022-12-29T16:30:30;11.40;72.30
15359;DHT22;7779;49.596;11.070;2022-12-29T16:33:03;11.40;72.90
15359;DHT22;7779;49.596;11.070;2022-12-29T16:35:46;11.40;72.30
15359;DHT22;7779;49.596;11.070;2022-12-29T16:38:20;11.40;72.90
15359;DHT22;7779;49.596;11.070;2022-12-29T16:40:54;11.40;72.60
15359;DHT22;7779;49.596;11.070;2022-12-29T16:43:26;11.40;72.50
15359;DHT22;7779;49.596;11.070;2022-12-29T16:48:28;11.50;72.60
15359;DHT22;7779;49.596;11.070;2022-12-29T16:53:35;11.50;72.50
15359;DHT22;7779;49.596;11.070;2022-12-29T16:56:16;11.50;72.30
15359;DHT22;7779;49.596;11.070;2022-12-29T16:58:49;11.50;72.50
15359;DHT22;7779;49.596;11.070;2022-12-29T17:01:19;11.50;72.30
15359;DHT22;7779;49.596;11.070;2022-12-29T17:03:50;11.50;72.30
15359;DHT22;7779;49.596;11.070;2022-12-29T17:06:18;11.50;72.40
15359;DHT22;7779;49.596;11.070;2022-12-29T17:08:46;11.50;72.30
15359;DHT22;7779;49.596;11.070;2022-12-29T17:11:23;11.50;72.20
15359;DHT22;7779;49.596;11.070;2022-12-29T17:17:03;11.50;72.50
15359;DHT22;7779;49.596;11.070;2022-12-29T17:19:36;11.50;72.30
15359;DHT22;7779;49.596;11.070;2022-12-29T17:22:09;11.60;73.10
15359;DHT22;7779;49.596;11.070;2022-12-29T17:24:46;11.60;72.60
15359;DHT22;7779;49.596;11.070;2022-12-29T17:27:22;11.50;72.30
15359;DHT22;7779;49.596;11.070;2022-12-29T17:29:52;11.60;72.70
15359;DHT22;7779;49.596;11.070;2022-12-29T17:32:21;11.60;72.50
15359;DHT22;7779;49.596;11.070;2022-12-29T17:34:47;11.50;72.50
15359;DHT22;7779;49.596;11.070;2022-12-29T17:37:35;11.60;72.70
15359;DHT22;7779;49.596;11.070;2022-12-29T17:40:04;11.50;72.70
15359;DHT22;7779;49.596;11.070;2022-12-29T17:42:40;11.50;72.70
15359;DHT22;7779;49.596;11.070;2022-12-29T17:45:12;11.50;72.70
15359;DHT22;7779;49.596;11.070;2022-12-29T17:47:40;11.60;73.10
15359;DHT22;7779;49.596;11.070;2022-12-29T17:50:13;11.60;73.00
15359;DHT22;7779;49.596;11.070;2022-12-29T17:52:42;11.60;73.20
15359;DHT22;7779;49.596;11.070;2022-12-29T17:55:16;11.60;73.10
15359;DHT22;7779;49.596;11.070;2022-12-29T17:57:44;11.60;73.20
15359;DHT22;7779;49.596;11.070;2022-12-29T18:00:30;11.50;73.20
15359;DHT22;7779;49.596;11.070;2022-12-29T18:02:57;11.50;73.40
15359;DHT22;7779;49.596;11.070;2022-12-29T18:05:25;11.50;72.50
15359;DHT22;7779;49.596;11.070;2022-12-29T18:07:54;11.50;72.40
15359;DHT22;7779;49.596;11.070;2022-12-29T18:10:23;11.40;72.30
15359;DHT22;7779;49.596;11.070;2022-12-29T18:12:52;11.40;72.20
15359;DHT22;7779;49.596;11.070;2022-12-29T18:15:22;11.30;72.00
15359;DHT22;7779;49.596;11.070;2022-12-29T18:17:53;11.30;72.10
15359;DHT22;7779;49.596;11.070;2022-12-29T18:20:23;11.20;72.00
15359;DHT22;7779;49.596;11.070;2022-12-29T18:22:49;11.10;72.10
15359;DHT22;7779;49.596;11.070;2022-12-29T18:28:04;10.90;72.90
15359;DHT22;7779;49.596;11.070;2022-12-29T18:30:30;10.90;72.50
15359;DHT22;7779;49.596;11.070;2022-12-29T18:32:55;10.80;72.50